sensor_id;sensor_type;location;lat;lon;timestamp;P1;durP1;ratioP1;P2;durP2;ratioP2
15848;SDS011;8024;48.708;9.394;2023-05-27T00:00:49;8.97;;;3.67;;
15848;SDS011;8024;48.708;9.394;2023-05-27T00:03:16;7.97;;;2.90;;
15848;SDS011;8024;48.708;9.394;2023-05-27T00:05:44;8.60;;;3.17;;
15848;SDS011;8024;48.708;9.394;2023-05-27T00:08:11;7.27;;;3.10;;
15848;SDS011;8024;48.708;9.394;2023-05-27T00:10:38;6.53;;;2.63;;
15848;SDS011;8024;48.708;9.394;2023-05-27T00:13:06;10.67;;;3.07;;
15848;SDS011;8024;48.708;9.394;2023-05-27T00:15:33;9.00;;;3.27;;
15848;SDS011;8024;48.708;9.394;2023-05-27T00:18:00;9.80;;;3.50;;
15848;SDS011;8024;48.708;9.394;2023-05-27T00:20:27;6.73;;;2.73;;
15848;SDS011;8024;48.708;9.394;2023-05-27T00:22:57;9.27;;;3.13;;
15848;SDS011;8024;48.708;9.394;2023-05-27T00:25:25;7.17;;;2.70;;
15848;SDS011;8024;48.708;9.394;2023-05-27T00:27:53;6.93;;;3.53;;
15848;SDS011;8024;48.708;9.394;2023-05-27T00:30:20;6.53;;;3.03;;
15848;SDS011;8024;48.708;9.394;2023-05-27T00:32:47;10.07;;;3.37;;
15848;SDS011;8024;48.708;9.394;2023-05-27T00:35:14;9.17;;;2.93;;
15848;SDS011;8024;48.708;9.394;2023-05-27T00:37:42;9.27;;;3.27;;
15848;SDS011;8024;48.708;9.394;2023-05-27T00:40:11;7.90;;;3.50;;
15848;SDS011;8024;48.708;9.394;2023-05-27T00:42:40;8.00;;;2.87;;
15848;SDS011;8024;48.708;9.394;2023-05-27T00:45:08;6.53;;;3.07;;
15848;SDS011;8024;48.708;9.394;2023-05-27T00:47:36;5.47;;;2.73;;
15848;SDS011;8024;48.708;9.394;2023-05-27T00:50:03;7.90;;;2.77;;
15848;SDS011;8024;48.708;9.394;2023-05-27T00:52:32;8.13;;;3.27;;
15848;SDS011;8024;48.708;9.394;2023-05-27T00:55:00;9.20;;;3.20;;
15848;SDS011;8024;48.708;9.394;2023-05-27T00:57:28;8.90;;;3.03;;
15848;SDS011;8024;48.708;9.394;2023-05-27T00:59:56;7.03;;;2.93;;
15848;SDS011;8024;48.708;9.394;2023-05-27T01:02:24;7.13;;;2.93;;
15848;SDS011;8024;48.708;9.394;2023-05-27T01:04:51;10.83;;;3.03;;
15848;SDS011;8024;48.708;9.394;2023-05-27T01:07:21;7.27;;;3.23;;
15848;SDS011;8024;48.708;9.394;2023-05-27T01:09:55;7.83;;;3.30;;
15848;SDS011;8024;48.708;9.394;2023-05-27T01:12:27;9.67;;;3.00;;
15848;SDS011;8024;48.708;9.394;2023-05-27T01:15:03;6.37;;;2.77;;
15848;SDS011;8024;48.708;9.394;2023-05-27T01:17:32;6.40;;;2.70;;
15848;SDS011;8024;48.708;9.394;2023-05-27T01:20:03;8.90;;;3.30;;
15848;SDS011;8024;48.708;9.394;2023-05-27T01:22:36;7.20;;;2.83;;
15848;SDS011;8024;48.708;9.394;2023-05-27T01:25:06;8.27;;;3.27;;
15848;SDS011;8024;48.708;9.394;2023-05-27T01:27:34;6.50;;;3.00;;
15848;SDS011;8024;48.708;9.394;2023-05-27T01:30:05;7.40;;;3.10;;
15848;SDS011;8024;48.708;9.394;2023-05-27T01:32:35;9.37;;;2.67;;
15848;SDS011;8024;48.708;9.394;2023-05-27T01:35:11;8.67;;;3.00;;
15848;SDS011;8024;48.708;9.394;2023-05-27T01:37:45;8.03;;;3.43;;
15848;SDS011;8024;48.708;9.394;2023-05-27T01:40:13;6.67;;;3.10;;
15848;SDS011;8024;48.708;9.394;2023-05-27T01:42:41;6.17;;;3.30;;
15848;SDS011;8024;48.708;9.394;2023-05-27T01:45:11;5.53;;;2.87;;
15848;SDS011;8024;48.708;9.394;2023-05-27T01:47:38;8.00;;;3.30;;
15848;SDS011;8024;48.708;9.394;2023-05-27T01:50:06;5.60;;;2.90;;
15848;SDS011;8024;48.708;9.394;2023-05-27T01:52:33;8.93;;;3.23;;
15848;SDS011;8024;48.708;9.394;2023-05-27T01:55:02;8.67;;;2.50;;
15848;SDS011;8024;48.708;9.394;2023-05-27T01:57:30;4.93;;;2.90;;
15848;SDS011;8024;48.708;9.394;2023-05-27T01:59:58;5.67;;;2.77;;
15848;SDS011;8024;48.708;9.394;2023-05-27T02:02:25;7.27;;;3.30;;
15848;SDS011;8024;48.708;9.394;2023-05-27T02:04:52;5.23;;;2.93;;
15848;SDS011;8024;48.708;9.394;2023-05-27T02:07:19;7.27;;;2.90;;
15848;SDS011;8024;48.708;9.394;2023-05-27T02:09:47;6.10;;;2.57;;
15848;SDS011;8024;48.708;9.394;2023-05-27T02:12:16;8.07;;;3.00;;
15848;SDS011;8024;48.708;9.394;2023-05-27T02:14:43;6.40;;;2.50;;
15848;SDS011;8024;48.708;9.394;2023-05-27T02:17:10;6.97;;;3.50;;
15848;SDS011;8024;48.708;9.394;2023-05-27T02:19:39;10.43;;;3.50;;
15848;SDS011;8024;48.708;9.394;2023-05-27T02:22:07;8.00;;;3.23;;
15848;SDS011;8024;48.708;9.394;2023-05-27T02:24:34;4.17;;;2.77;;
15848;SDS011;8024;48.708;9.394;2023-05-27T02:27:01;8.27;;;3.23;;
15848;SDS011;8024;48.708;9.394;2023-05-27T02:29:30;9.00;;;3.10;;
15848;SDS011;8024;48.708;9.394;2023-05-27T02:31:57;6.53;;;3.03;;
15848;SDS011;8024;48.708;9.394;2023-05-27T02:34:24;9.53;;;3.33;;
15848;SDS011;8024;48.708;9.394;2023-05-27T02:36:51;7.80;;;3.17;;
15848;SDS011;8024;48.708;9.394;2023-05-27T02:39:19;8.60;;;3.27;;
15848;SDS011;8024;48.708;9.394;2023-05-27T02:41:46;8.97;;;2.87;;
15848;SDS011;8024;48.708;9.394;2023-05-27T02:44:13;5.97;;;3.07;;
15848;SDS011;8024;48.708;9.394;2023-05-27T02:46:42;10.13;;;2.77;;
15848;SDS011;8024;48.708;9.394;2023-05-27T02:49:09;7.80;;;3.07;;
15848;SDS011;8024;48.708;9.394;2023-05-27T02:51:37;6.67;;;2.70;;
15848;SDS011;8024;48.708;9.394;2023-05-27T02:54:04;9.17;;;3.47;;
15848;SDS011;8024;48.708;9.394;2023-05-27T02:56:31;9.90;;;3.23;;
15848;SDS011;8024;48.708;9.394;2023-05-27T02:58:58;8.03;;;3.50;;
15848;SDS011;8024;48.708;9.394;2023-05-27T03:01:25;9.03;;;3.43;;
15848;SDS011;8024;48.708;9.394;2023-05-27T03:03:54;7.07;;;3.00;;
15848;SDS011;8024;48.708;9.394;2023-05-27T03:06:21;10.10;;;3.80;;
15848;SDS011;8024;48.708;9.394;2023-05-27T03:08:48;6.37;;;3.63;;
15848;SDS011;8024;48.708;9.394;2023-05-27T03:11:15;8.40;;;3.27;;
15848;SDS011;8024;48.708;9.394;2023-05-27T03:13:42;7.60;;;2.97;;
15848;SDS011;8024;48.708;9.394;2023-05-27T03:16:10;8.97;;;3.20;;
15848;SDS011;8024;48.708;9.394;2023-05-27T03:18:37;9.40;;;3.63;;
15848;SDS011;8024;48.708;9.394;2023-05-27T03:21:06;6.53;;;3.20;;
15848;SDS011;8024;48.708;9.394;2023-05-27T03:23:33;7.10;;;3.17;;
15848;SDS011;8024;48.708;9.394;2023-05-27T03:26:00;7.10;;;3.10;;
15848;SDS011;8024;48.708;9.394;2023-05-27T03:28:27;6.63;;;3.47;;
15848;SDS011;8024;48.708;9.394;2023-05-27T03:30:54;8.47;;;3.20;;
15848;SDS011;8024;48.708;9.394;2023-05-27T03:33:22;7.70;;;3.17;;
15848;SDS011;8024;48.708;9.394;2023-05-27T03:35:49;7.00;;;2.87;;
15848;SDS011;8024;48.708;9.394;2023-05-27T03:38:18;7.00;;;3.13;;
15848;SDS011;8024;48.708;9.394;2023-05-27T03:40:45;8.70;;;3.47;;
15848;SDS011;8024;48.708;9.394;2023-05-27T03:43:12;7.80;;;3.40;;
15848;SDS011;8024;48.708;9.394;2023-05-27T03:45:39;6.20;;;3.13;;
15848;SDS011;8024;48.708;9.394;2023-05-27T03:48:07;5.97;;;2.77;;
15848;SDS011;8024;48.708;9.394;2023-05-27T03:50:34;5.13;;;3.00;;
15848;SDS011;8024;48.708;9.394;2023-05-27T03:53:01;9.27;;;3.47;;
15848;SDS011;8024;48.708;9.394;2023-05-27T03:55:29;5.73;;;3.50;;
15848;SDS011;8024;48.708;9.394;2023-05-27T03:57:57;8.90;;;3.80;;
15848;SDS011;8024;48.708;9.394;2023-05-27T04:00:24;7.33;;;3.20;;
15848;SDS011;8024;48.708;9.394;2023-05-27T04:02:51;8.60;;;2.90;;
15848;SDS011;8024;48.708;9.394;2023-05-27T04:05:18;9.30;;;3.40;;
15848;SDS011;8024;48.708;9.394;2023-05-27T04:07:46;7.23;;;3.80;;
15848;SDS011;8024;48.708;9.394;2023-05-27T04:10:13;8.67;;;3.30;;
15848;SDS011;8024;48.708;9.394;2023-05-27T04:12:41;6.93;;;3.37;;
15848;SDS011;8024;48.708;9.394;2023-05-27T04:15:09;9.93;;;3.60;;
15848;SDS011;8024;48.708;9.394;2023-05-27T04:17:36;10.87;;;3.20;;
15848;SDS011;8024;48.708;9.394;2023-05-27T04:20:04;9.33;;;3.30;;
15848;SDS011;8024;48.708;9.394;2023-05-27T04:22:38;5.37;;;3.83;;
15848;SDS011;8024;48.708;9.394;2023-05-27T04:25:06;6.90;;;3.27;;
15848;SDS011;8024;48.708;9.394;2023-05-27T04:27:34;7.13;;;3.30;;
15848;SDS011;8024;48.708;9.394;2023-05-27T04:30:03;8.57;;;3.40;;
15848;SDS011;8024;48.708;9.394;2023-05-27T04:32:31;10.03;;;2.87;;
15848;SDS011;8024;48.708;9.394;2023-05-27T04:35:03;10.40;;;5.37;;
15848;SDS011;8024;48.708;9.394;2023-05-27T04:37:32;12.43;;;3.87;;
15848;SDS011;8024;48.708;9.394;2023-05-27T04:40:01;8.83;;;4.00;;
15848;SDS011;8024;48.708;9.394;2023-05-27T04:42:31;9.57;;;3.33;;
15848;SDS011;8024;48.708;9.394;2023-05-27T04:45:02;10.23;;;3.63;;
15848;SDS011;8024;48.708;9.394;2023-05-27T04:47:30;6.83;;;3.37;;
15848;SDS011;8024;48.708;9.394;2023-05-27T04:49:58;8.70;;;3.90;;
15848;SDS011;8024;48.708;9.394;2023-05-27T04:52:26;8.57;;;3.77;;
15848;SDS011;8024;48.708;9.394;2023-05-27T04:54:53;9.17;;;3.23;;
15848;SDS011;8024;48.708;9.394;2023-05-27T04:57:20;6.23;;;3.00;;
15848;SDS011;8024;48.708;9.394;2023-05-27T04:59:47;8.97;;;3.80;;
15848;SDS011;8024;48.708;9.394;2023-05-27T05:02:44;9.53;;;3.47;;
15848;SDS011;8024;48.708;9.394;2023-05-27T05:05:13;8.13;;;3.03;;
15848;SDS011;8024;48.708;9.394;2023-05-27T05:07:41;6.57;;;2.97;;
15848;SDS011;8024;48.708;9.394;2023-05-27T05:10:09;10.77;;;3.83;;
15848;SDS011;8024;48.708;9.394;2023-05-27T05:12:36;10.57;;;3.37;;
15848;SDS011;8024;48.708;9.394;2023-05-27T05:15:04;5.13;;;2.93;;
15848;SDS011;8024;48.708;9.394;2023-05-27T05:17:32;9.73;;;3.23;;
15848;SDS011;8024;48.708;9.394;2023-05-27T05:20:01;9.20;;;3.27;;
15848;SDS011;8024;48.708;9.394;2023-05-27T05:22:38;7.10;;;3.50;;
15848;SDS011;8024;48.708;9.394;2023-05-27T05:25:05;9.30;;;3.43;;
15848;SDS011;8024;48.708;9.394;2023-05-27T05:27:33;10.60;;;3.57;;
15848;SDS011;8024;48.708;9.394;2023-05-27T05:30:01;9.63;;;3.97;;
15848;SDS011;8024;48.708;9.394;2023-05-27T05:32:29;7.50;;;3.50;;
15848;SDS011;8024;48.708;9.394;2023-05-27T05:34:57;4.90;;;3.17;;
15848;SDS011;8024;48.708;9.394;2023-05-27T05:37:25;9.23;;;3.30;;
15848;SDS011;8024;48.708;9.394;2023-05-27T05:39:53;8.33;;;3.23;;
15848;SDS011;8024;48.708;9.394;2023-05-27T05:42:21;11.47;;;4.10;;
15848;SDS011;8024;48.708;9.394;2023-05-27T05:44:50;9.10;;;3.67;;
15848;SDS011;8024;48.708;9.394;2023-05-27T05:47:18;9.57;;;4.03;;
15848;SDS011;8024;48.708;9.394;2023-05-27T05:49:45;7.63;;;3.20;;
15848;SDS011;8024;48.708;9.394;2023-05-27T05:52:12;7.13;;;3.90;;
15848;SDS011;8024;48.708;9.394;2023-05-27T05:54:41;8.93;;;3.87;;
15848;SDS011;8024;48.708;9.394;2023-05-27T05:57:08;11.10;;;4.33;;
15848;SDS011;8024;48.708;9.394;2023-05-27T05:59:35;8.80;;;3.57;;
15848;SDS011;8024;48.708;9.394;2023-05-27T06:02:02;10.07;;;4.40;;
15848;SDS011;8024;48.708;9.394;2023-05-27T06:04:29;6.87;;;3.37;;
15848;SDS011;8024;48.708;9.394;2023-05-27T06:06:57;8.87;;;3.17;;
15848;SDS011;8024;48.708;9.394;2023-05-27T06:09:24;10.33;;;3.40;;
15848;SDS011;8024;48.708;9.394;2023-05-27T06:11:52;8.97;;;3.50;;
15848;SDS011;8024;48.708;9.394;2023-05-27T06:14:20;8.43;;;3.33;;
15848;SDS011;8024;48.708;9.394;2023-05-27T06:16:47;6.97;;;2.93;;
15848;SDS011;8024;48.708;9.394;2023-05-27T06:19:14;8.30;;;3.90;;
15848;SDS011;8024;48.708;9.394;2023-05-27T06:21:41;8.13;;;3.67;;
15848;SDS011;8024;48.708;9.394;2023-05-27T06:24:09;10.47;;;4.10;;
15848;SDS011;8024;48.708;9.394;2023-05-27T06:26:36;6.57;;;2.97;;
15848;SDS011;8024;48.708;9.394;2023-05-27T06:29:04;9.10;;;3.37;;
15848;SDS011;8024;48.708;9.394;2023-05-27T06:31:31;11.23;;;3.50;;
15848;SDS011;8024;48.708;9.394;2023-05-27T06:33:59;11.73;;;3.27;;
15848;SDS011;8024;48.708;9.394;2023-05-27T06:36:26;6.30;;;3.63;;
15848;SDS011;8024;48.708;9.394;2023-05-27T06:38:53;6.07;;;3.50;;
15848;SDS011;8024;48.708;9.394;2023-05-27T06:41:20;10.30;;;4.07;;
15848;SDS011;8024;48.708;9.394;2023-05-27T06:43:47;7.73;;;3.70;;
15848;SDS011;8024;48.708;9.394;2023-05-27T06:46:16;10.13;;;3.63;;
15848;SDS011;8024;48.708;9.394;2023-05-27T06:48:43;8.23;;;3.63;;
15848;SDS011;8024;48.708;9.394;2023-05-27T06:51:10;5.47;;;3.17;;
15848;SDS011;8024;48.708;9.394;2023-05-27T06:53:38;5.43;;;3.20;;
15848;SDS011;8024;48.708;9.394;2023-05-27T06:56:05;6.33;;;3.77;;
15848;SDS011;8024;48.708;9.394;2023-05-27T06:58:32;8.93;;;4.00;;
15848;SDS011;8024;48.708;9.394;2023-05-27T07:00:59;6.20;;;3.50;;
15848;SDS011;8024;48.708;9.394;2023-05-27T07:03:28;7.67;;;3.40;;
15848;SDS011;8024;48.708;9.394;2023-05-27T07:05:55;7.43;;;3.57;;
15848;SDS011;8024;48.708;9.394;2023-05-27T07:08:22;5.97;;;3.53;;
15848;SDS011;8024;48.708;9.394;2023-05-27T07:10:49;10.20;;;3.63;;
15848;SDS011;8024;48.708;9.394;2023-05-27T07:13:17;9.47;;;4.20;;
15848;SDS011;8024;48.708;9.394;2023-05-27T07:15:44;7.83;;;3.70;;
15848;SDS011;8024;48.708;9.394;2023-05-27T07:18:11;7.50;;;3.60;;
15848;SDS011;8024;48.708;9.394;2023-05-27T07:20:40;5.13;;;3.00;;
15848;SDS011;8024;48.708;9.394;2023-05-27T07:23:07;11.27;;;4.00;;
15848;SDS011;8024;48.708;9.394;2023-05-27T07:25:34;9.67;;;3.90;;
15848;SDS011;8024;48.708;9.394;2023-05-27T07:28:01;6.40;;;3.33;;
15848;SDS011;8024;48.708;9.394;2023-05-27T07:30:29;8.80;;;3.83;;
15848;SDS011;8024;48.708;9.394;2023-05-27T07:32:56;8.53;;;3.67;;
15848;SDS011;8024;48.708;9.394;2023-05-27T07:35:23;5.97;;;3.37;;
15848;SDS011;8024;48.708;9.394;2023-05-27T07:37:52;5.93;;;3.37;;
15848;SDS011;8024;48.708;9.394;2023-05-27T07:40:19;8.00;;;3.77;;
15848;SDS011;8024;48.708;9.394;2023-05-27T07:42:46;7.27;;;2.97;;
15848;SDS011;8024;48.708;9.394;2023-05-27T07:45:13;6.73;;;3.70;;
15848;SDS011;8024;48.708;9.394;2023-05-27T07:47:41;4.97;;;3.10;;
15848;SDS011;8024;48.708;9.394;2023-05-27T07:50:08;7.40;;;3.60;;
15848;SDS011;8024;48.708;9.394;2023-05-27T07:52:36;6.10;;;3.20;;
15848;SDS011;8024;48.708;9.394;2023-05-27T07:55:05;9.63;;;3.47;;
15848;SDS011;8024;48.708;9.394;2023-05-27T07:57:32;8.23;;;3.43;;
15848;SDS011;8024;48.708;9.394;2023-05-27T07:59:59;7.03;;;3.20;;
15848;SDS011;8024;48.708;9.394;2023-05-27T08:02:26;6.07;;;3.40;;
15848;SDS011;8024;48.708;9.394;2023-05-27T08:04:54;6.57;;;3.70;;
15848;SDS011;8024;48.708;9.394;2023-05-27T08:07:21;7.00;;;4.13;;
15848;SDS011;8024;48.708;9.394;2023-05-27T08:09:48;9.00;;;3.23;;
15848;SDS011;8024;48.708;9.394;2023-05-27T08:12:17;6.53;;;3.33;;
15848;SDS011;8024;48.708;9.394;2023-05-27T08:14:45;8.30;;;3.80;;
15848;SDS011;8024;48.708;9.394;2023-05-27T08:17:13;6.30;;;3.83;;
15848;SDS011;8024;48.708;9.394;2023-05-27T08:19:40;6.60;;;4.13;;
15848;SDS011;8024;48.708;9.394;2023-05-27T08:22:07;7.20;;;3.53;;
15848;SDS011;8024;48.708;9.394;2023-05-27T08:24:35;9.10;;;3.77;;
15848;SDS011;8024;48.708;9.394;2023-05-27T08:27:02;6.90;;;3.30;;
15848;SDS011;8024;48.708;9.394;2023-05-27T08:29:32;8.73;;;4.03;;
15848;SDS011;8024;48.708;9.394;2023-05-27T08:32:00;7.83;;;4.13;;
15848;SDS011;8024;48.708;9.394;2023-05-27T08:34:27;5.27;;;3.47;;
15848;SDS011;8024;48.708;9.394;2023-05-27T08:36:54;7.67;;;3.43;;
15848;SDS011;8024;48.708;9.394;2023-05-27T08:39:21;11.17;;;4.50;;
15848;SDS011;8024;48.708;9.394;2023-05-27T08:41:48;5.50;;;3.57;;
15848;SDS011;8024;48.708;9.394;2023-05-27T08:44:16;6.90;;;3.80;;
15848;SDS011;8024;48.708;9.394;2023-05-27T08:46:45;6.70;;;3.73;;
15848;SDS011;8024;48.708;9.394;2023-05-27T08:49:13;8.57;;;4.17;;
15848;SDS011;8024;48.708;9.394;2023-05-27T08:51:41;7.10;;;4.00;;
15848;SDS011;8024;48.708;9.394;2023-05-27T08:54:10;7.13;;;3.70;;
15848;SDS011;8024;48.708;9.394;2023-05-27T08:56:37;6.20;;;3.57;;
15848;SDS011;8024;48.708;9.394;2023-05-27T08:59:06;7.30;;;3.70;;
15848;SDS011;8024;48.708;9.394;2023-05-27T09:01:33;7.90;;;3.60;;
15848;SDS011;8024;48.708;9.394;2023-05-27T09:04:02;6.53;;;3.90;;
15848;SDS011;8024;48.708;9.394;2023-05-27T09:06:30;8.30;;;3.80;;
15848;SDS011;8024;48.708;9.394;2023-05-27T09:08:57;11.53;;;4.17;;
15848;SDS011;8024;48.708;9.394;2023-05-27T09:11:25;7.00;;;3.97;;
15848;SDS011;8024;48.708;9.394;2023-05-27T09:13:53;8.87;;;4.53;;
15848;SDS011;8024;48.708;9.394;2023-05-27T09:16:21;8.87;;;3.90;;
15848;SDS011;8024;48.708;9.394;2023-05-27T09:18:49;12.57;;;4.30;;
15848;SDS011;8024;48.708;9.394;2023-05-27T09:21:18;8.30;;;3.67;;
15848;SDS011;8024;48.708;9.394;2023-05-27T09:23:45;7.50;;;4.07;;
15848;SDS011;8024;48.708;9.394;2023-05-27T09:26:12;8.53;;;3.83;;
15848;SDS011;8024;48.708;9.394;2023-05-27T09:28:40;7.13;;;4.07;;
15848;SDS011;8024;48.708;9.394;2023-05-27T09:31:08;7.10;;;3.80;;
15848;SDS011;8024;48.708;9.394;2023-05-27T09:33:37;6.37;;;3.70;;
15848;SDS011;8024;48.708;9.394;2023-05-27T09:36:05;9.90;;;4.23;;
15848;SDS011;8024;48.708;9.394;2023-05-27T09:38:35;9.73;;;4.73;;
15848;SDS011;8024;48.708;9.394;2023-05-27T09:41:03;9.03;;;3.70;;
15848;SDS011;8024;48.708;9.394;2023-05-27T09:43:30;7.80;;;4.67;;
15848;SDS011;8024;48.708;9.394;2023-05-27T09:45:58;8.27;;;3.83;;
15848;SDS011;8024;48.708;9.394;2023-05-27T09:48:27;7.03;;;3.87;;
15848;SDS011;8024;48.708;9.394;2023-05-27T09:50:57;6.27;;;3.87;;
15848;SDS011;8024;48.708;9.394;2023-05-27T09:53:25;9.03;;;4.07;;
15848;SDS011;8024;48.708;9.394;2023-05-27T09:55:54;8.30;;;4.30;;
15848;SDS011;8024;48.708;9.394;2023-05-27T09:58:22;8.83;;;4.80;;
15848;SDS011;8024;48.708;9.394;2023-05-27T10:00:50;7.93;;;4.27;;
15848;SDS011;8024;48.708;9.394;2023-05-27T10:03:20;6.70;;;3.60;;
15848;SDS011;8024;48.708;9.394;2023-05-27T10:05:49;7.30;;;4.17;;
15848;SDS011;8024;48.708;9.394;2023-05-27T10:08:17;7.50;;;4.50;;
15848;SDS011;8024;48.708;9.394;2023-05-27T10:10:44;7.90;;;4.70;;
15848;SDS011;8024;48.708;9.394;2023-05-27T10:13:14;7.93;;;4.00;;
15848;SDS011;8024;48.708;9.394;2023-05-27T10:15:45;8.80;;;4.23;;
15848;SDS011;8024;48.708;9.394;2023-05-27T10:18:21;10.40;;;4.30;;
15848;SDS011;8024;48.708;9.394;2023-05-27T10:20:50;7.03;;;3.83;;
15848;SDS011;8024;48.708;9.394;2023-05-27T10:23:19;7.67;;;4.33;;
15848;SDS011;8024;48.708;9.394;2023-05-27T10:25:48;8.17;;;4.17;;
15848;SDS011;8024;48.708;9.394;2023-05-27T10:28:27;10.77;;;4.73;;
15848;SDS011;8024;48.708;9.394;2023-05-27T10:31:03;9.90;;;4.30;;
15848;SDS011;8024;48.708;9.394;2023-05-27T10:33:31;9.00;;;4.57;;
15848;SDS011;8024;48.708;9.394;2023-05-27T10:36:04;7.27;;;4.10;;
15848;SDS011;8024;48.708;9.394;2023-05-27T10:38:33;7.83;;;4.80;;
15848;SDS011;8024;48.708;9.394;2023-05-27T10:41:01;8.43;;;4.37;;
15848;SDS011;8024;48.708;9.394;2023-05-27T10:43:31;9.80;;;4.10;;
15848;SDS011;8024;48.708;9.394;2023-05-27T10:46:03;8.00;;;3.83;;
15848;SDS011;8024;48.708;9.394;2023-05-27T10:48:32;6.33;;;3.50;;
15848;SDS011;8024;48.708;9.394;2023-05-27T10:51:01;10.80;;;4.40;;
15848;SDS011;8024;48.708;9.394;2023-05-27T10:53:28;7.30;;;3.67;;
15848;SDS011;8024;48.708;9.394;2023-05-27T10:55:57;7.17;;;4.20;;
15848;SDS011;8024;48.708;9.394;2023-05-27T10:58:25;6.50;;;4.10;;
15848;SDS011;8024;48.708;9.394;2023-05-27T11:00:55;6.17;;;4.60;;
15848;SDS011;8024;48.708;9.394;2023-05-27T11:03:24;5.20;;;3.47;;
15848;SDS011;8024;48.708;9.394;2023-05-27T11:06:02;7.47;;;3.63;;
15848;SDS011;8024;48.708;9.394;2023-05-27T11:08:30;8.17;;;4.60;;
15848;SDS011;8024;48.708;9.394;2023-05-27T11:10:58;5.87;;;3.90;;
15848;SDS011;8024;48.708;9.394;2023-05-27T11:13:30;8.03;;;4.10;;
15848;SDS011;8024;48.708;9.394;2023-05-27T11:15:59;7.63;;;4.73;;
15848;SDS011;8024;48.708;9.394;2023-05-27T11:18:33;6.53;;;4.10;;
15848;SDS011;8024;48.708;9.394;2023-05-27T11:21:01;8.80;;;4.57;;
15848;SDS011;8024;48.708;9.394;2023-05-27T11:23:35;8.23;;;5.00;;
15848;SDS011;8024;48.708;9.394;2023-05-27T11:26:04;6.00;;;3.77;;
15848;SDS011;8024;48.708;9.394;2023-05-27T11:28:44;7.60;;;4.67;;
15848;SDS011;8024;48.708;9.394;2023-05-27T11:31:14;13.37;;;3.90;;
15848;SDS011;8024;48.708;9.394;2023-05-27T11:33:41;8.33;;;4.47;;
15848;SDS011;8024;48.708;9.394;2023-05-27T11:36:11;6.80;;;4.00;;
15848;SDS011;8024;48.708;9.394;2023-05-27T11:38:45;7.73;;;4.67;;
15848;SDS011;8024;48.708;9.394;2023-05-27T11:41:14;7.73;;;4.10;;
15848;SDS011;8024;48.708;9.394;2023-05-27T11:43:48;5.03;;;4.00;;
15848;SDS011;8024;48.708;9.394;2023-05-27T11:46:18;8.00;;;4.15;;
15848;SDS011;8024;48.708;9.394;2023-05-27T11:48:45;9.17;;;4.33;;
15848;SDS011;8024;48.708;9.394;2023-05-27T11:51:13;5.20;;;3.75;;
15848;SDS011;8024;48.708;9.394;2023-05-27T11:53:40;5.47;;;3.80;;
15848;SDS011;8024;48.708;9.394;2023-05-27T11:56:10;5.55;;;3.60;;
15848;SDS011;8024;48.708;9.394;2023-05-27T11:58:37;5.97;;;3.47;;
15848;SDS011;8024;48.708;9.394;2023-05-27T12:01:05;5.72;;;4.05;;
15848;SDS011;8024;48.708;9.394;2023-05-27T12:03:33;7.35;;;3.95;;
15848;SDS011;8024;48.708;9.394;2023-05-27T12:06:01;7.13;;;3.85;;
15848;SDS011;8024;48.708;9.394;2023-05-27T12:08:29;6.03;;;4.10;;
15848;SDS011;8024;48.708;9.394;2023-05-27T12:10:56;7.22;;;4.82;;
15848;SDS011;8024;48.708;9.394;2023-05-27T12:13:23;6.25;;;3.55;;
15848;SDS011;8024;48.708;9.394;2023-05-27T12:15:51;7.68;;;4.07;;
15848;SDS011;8024;48.708;9.394;2023-05-27T12:18:18;6.97;;;3.60;;
15848;SDS011;8024;48.708;9.394;2023-05-27T12:20:46;7.95;;;4.00;;
15848;SDS011;8024;48.708;9.394;2023-05-27T12:23:14;6.90;;;3.85;;
15848;SDS011;8024;48.708;9.394;2023-05-27T12:25:41;7.22;;;4.15;;
15848;SDS011;8024;48.708;9.394;2023-05-27T12:28:08;9.57;;;4.47;;
15848;SDS011;8024;48.708;9.394;2023-05-27T12:30:36;6.60;;;4.15;;
15848;SDS011;8024;48.708;9.394;2023-05-27T12:33:03;7.57;;;4.40;;
15848;SDS011;8024;48.708;9.394;2023-05-27T12:35:31;6.03;;;4.28;;
15848;SDS011;8024;48.708;9.394;2023-05-27T12:38:00;7.97;;;4.35;;
15848;SDS011;8024;48.708;9.394;2023-05-27T12:40:27;6.85;;;4.10;;
15848;SDS011;8024;48.708;9.394;2023-05-27T12:42:55;6.55;;;4.47;;
15848;SDS011;8024;48.708;9.394;2023-05-27T12:45:23;5.35;;;4.00;;
15848;SDS011;8024;48.708;9.394;2023-05-27T12:47:51;6.28;;;3.65;;
15848;SDS011;8024;48.708;9.394;2023-05-27T12:50:18;7.25;;;4.15;;
15848;SDS011;8024;48.708;9.394;2023-05-27T12:52:45;5.95;;;3.78;;
15848;SDS011;8024;48.708;9.394;2023-05-27T12:55:16;4.70;;;3.75;;
15848;SDS011;8024;48.708;9.394;2023-05-27T12:57:44;6.82;;;3.72;;
15848;SDS011;8024;48.708;9.394;2023-05-27T13:00:12;6.72;;;4.18;;
15848;SDS011;8024;48.708;9.394;2023-05-27T13:02:40;5.03;;;4.00;;
15848;SDS011;8024;48.708;9.394;2023-05-27T13:05:08;8.63;;;4.10;;
15848;SDS011;8024;48.708;9.394;2023-05-27T13:07:36;7.07;;;4.03;;
15848;SDS011;8024;48.708;9.394;2023-05-27T13:10:05;5.15;;;3.60;;
15848;SDS011;8024;48.708;9.394;2023-05-27T13:12:35;6.82;;;4.03;;
15848;SDS011;8024;48.708;9.394;2023-05-27T13:15:03;6.25;;;3.97;;
15848;SDS011;8024;48.708;9.394;2023-05-27T13:17:33;6.55;;;4.15;;
15848;SDS011;8024;48.708;9.394;2023-05-27T13:20:00;7.72;;;4.38;;
15848;SDS011;8024;48.708;9.394;2023-05-27T13:22:28;9.25;;;3.80;;
15848;SDS011;8024;48.708;9.394;2023-05-27T13:24:55;7.60;;;4.28;;
15848;SDS011;8024;48.708;9.394;2023-05-27T13:27:22;6.65;;;4.13;;
15848;SDS011;8024;48.708;9.394;2023-05-27T13:29:51;5.97;;;3.88;;
15848;SDS011;8024;48.708;9.394;2023-05-27T13:32:18;6.72;;;3.80;;
15848;SDS011;8024;48.708;9.394;2023-05-27T13:34:45;7.70;;;4.40;;
15848;SDS011;8024;48.708;9.394;2023-05-27T13:37:13;6.40;;;3.97;;
15848;SDS011;8024;48.708;9.394;2023-05-27T13:39:40;5.53;;;3.40;;
15848;SDS011;8024;48.708;9.394;2023-05-27T13:42:08;5.45;;;3.63;;
15848;SDS011;8024;48.708;9.394;2023-05-27T13:44:36;7.45;;;3.58;;
15848;SDS011;8024;48.708;9.394;2023-05-27T13:47:05;9.32;;;4.10;;
15848;SDS011;8024;48.708;9.394;2023-05-27T13:49:32;6.80;;;3.58;;
15848;SDS011;8024;48.708;9.394;2023-05-27T13:52:00;7.07;;;3.72;;
15848;SDS011;8024;48.708;9.394;2023-05-27T13:54:27;3.65;;;2.78;;
15848;SDS011;8024;48.708;9.394;2023-05-27T13:56:55;7.75;;;3.47;;
15848;SDS011;8024;48.708;9.394;2023-05-27T13:59:22;6.30;;;3.78;;
15848;SDS011;8024;48.708;9.394;2023-05-27T14:01:49;6.03;;;3.50;;
15848;SDS011;8024;48.708;9.394;2023-05-27T14:04:18;6.65;;;3.53;;
15848;SDS011;8024;48.708;9.394;2023-05-27T14:06:45;6.65;;;3.25;;
15848;SDS011;8024;48.708;9.394;2023-05-27T14:09:13;10.23;;;3.58;;
15848;SDS011;8024;48.708;9.394;2023-05-27T14:11:40;6.75;;;3.20;;
15848;SDS011;8024;48.708;9.394;2023-05-27T14:14:07;4.57;;;2.75;;
15848;SDS011;8024;48.708;9.394;2023-05-27T14:16:34;4.82;;;2.88;;
15848;SDS011;8024;48.708;9.394;2023-05-27T14:19:01;6.00;;;2.92;;
15848;SDS011;8024;48.708;9.394;2023-05-27T14:21:30;5.18;;;2.60;;
15848;SDS011;8024;48.708;9.394;2023-05-27T14:23:58;6.90;;;3.22;;
15848;SDS011;8024;48.708;9.394;2023-05-27T14:26:25;4.43;;;3.15;;
15848;SDS011;8024;48.708;9.394;2023-05-27T14:28:52;6.93;;;3.30;;
15848;SDS011;8024;48.708;9.394;2023-05-27T14:31:20;4.40;;;2.30;;
15848;SDS011;8024;48.708;9.394;2023-05-27T14:33:47;4.65;;;2.78;;
15848;SDS011;8024;48.708;9.394;2023-05-27T14:36:14;4.93;;;2.60;;
15848;SDS011;8024;48.708;9.394;2023-05-27T14:38:43;6.13;;;3.25;;
15848;SDS011;8024;48.708;9.394;2023-05-27T14:41:10;4.72;;;2.60;;
15848;SDS011;8024;48.708;9.394;2023-05-27T14:43:37;5.57;;;2.90;;
15848;SDS011;8024;48.708;9.394;2023-05-27T14:46:04;5.55;;;3.15;;
15848;SDS011;8024;48.708;9.394;2023-05-27T14:48:31;7.47;;;2.92;;
15848;SDS011;8024;48.708;9.394;2023-05-27T14:50:58;5.20;;;2.55;;
15848;SDS011;8024;48.708;9.394;2023-05-27T14:53:25;5.15;;;2.83;;
15848;SDS011;8024;48.708;9.394;2023-05-27T14:55:54;5.63;;;2.60;;
15848;SDS011;8024;48.708;9.394;2023-05-27T14:58:21;4.68;;;2.85;;
15848;SDS011;8024;48.708;9.394;2023-05-27T15:00:48;4.00;;;2.80;;
15848;SDS011;8024;48.708;9.394;2023-05-27T15:03:15;3.70;;;2.55;;
15848;SDS011;8024;48.708;9.394;2023-05-27T15:05:42;3.55;;;2.78;;